Minerva Virgo — SXXT — position and weather

sailwx.info

Track history (hours):
 
Tides and Currents Weather Stations Pressure Air Temp Water Temp Dewpoint Dewpoint Depression Visibility Wind Speed Wind Dir Waves Ship Positions

Minerva Virgo

Last reported at 2017-Aug-09 03:33 UTC. Time now 2017-Aug-16 21:42 UTC.
Position N 26°20' W 079°24'.

Length 182 m; draft 12.4 m.

Type: Ship (hazmat cat C). MMSI: 240730000.

Date/timePositionNaut miles runAvg speedWind from/ knotsBaromVisibWave heightAir tempDewpointWater temp
2017-Aug-09 03:33N 26°20' W 079°24'213.7
2017-Aug-09 03:25N 26°18' W 079°24'613.8
2017-Aug-09 03:00N 26°12' W 079°25'713.9
2017-Aug-09 02:30N 26°06' W 079°25'714.0
2017-Aug-09 02:01N 25°59' W 079°27'714.2
2017-Aug-09 01:30N 25°52' W 079°28'714.2
2017-Aug-09 01:00N 25°45' W 079°29'714.2
2017-Aug-09 00:30N 25°38' W 079°30'  
2017-Aug-04 11:28N 29°57' W 090°23'  
Track history (hours):
 
Tides and Currents Weather Stations Pressure Air Temp Water Temp Dewpoint Dewpoint Depression Visibility Wind Speed Wind Dir Waves Ship Positions

Minerva Virgo

Last reported at 2017-Aug-09 03:33 UTC. Time now 2017-Aug-16 21:42 UTC.
Position N 26°20' W 079°24'.

Length 182 m; draft 12.4 m.

Type: Ship (hazmat cat C). MMSI: 240730000.

Date/timePositionNaut miles runAvg speedWind from/ knotsBaromVisibWave heightAir tempDewpointWater temp
2017-Aug-09 03:33N 26°20' W 079°24'213.7
2017-Aug-09 03:25N 26°18' W 079°24'613.8
2017-Aug-09 03:00N 26°12' W 079°25'713.9
2017-Aug-09 02:30N 26°06' W 079°25'714.0
2017-Aug-09 02:01N 25°59' W 079°27'714.2
2017-Aug-09 01:30N 25°52' W 079°28'714.2
2017-Aug-09 01:00N 25°45' W 079°29'714.2
2017-Aug-09 00:30N 25°38' W 079°30'  
2017-Aug-04 11:28N 29°57' W 090°23'  

Dump ship's entire track history